Time;durP1;ratioP1;P1;durP2;ratioP2;P2;SDS_P1;SDS_P2;PMS_P1;PMS_P2;Temp;Humidity;BMP_temperature;BMP_pressure;BME280_temperature;BME280_humidity;BME280_pressure;Samples;Min_cycle;Max_cycle;Signal;HPM_P1;HPM_P2
2023/10/26 00:00:18;;;;;;;9.23;5.63;;;10.50;99.90;;;;;;5002219;28;20301;-72
2023/10/26 00:02:43;;;;;;;7.80;6.00;;;10.60;99.90;;;;;;5002167;28;20643;-72
2023/10/26 00:05:09;;;;;;;8.57;5.97;;;10.60;99.90;;;;;;5014963;28;20303;-72
2023/10/26 00:07:35;;;;;;;9.07;6.17;;;10.60;99.90;;;;;;5009348;28;20216;-72
2023/10/26 00:10:01;;;;;;;11.57;6.77;;;10.60;99.90;;;;;;5005043;28;20216;-72
2023/10/26 00:12:27;;;;;;;8.87;5.33;;;10.60;99.90;;;;;;5004398;28;20223;-72
2023/10/26 00:14:53;;;;;;;8.20;5.70;;;10.60;99.90;;;;;;5007832;28;20588;-72
2023/10/26 00:17:18;;;;;;;8.63;6.13;;;10.50;99.90;;;;;;5000142;28;20192;-73
2023/10/26 00:19:44;;;;;;;9.30;6.17;;;10.50;99.90;;;;;;5004733;28;20213;-73
2023/10/26 00:22:09;;;;;;;8.40;6.30;;;10.50;99.90;;;;;;5006685;28;20208;-72
2023/10/26 00:24:37;;;;;;;8.67;6.10;;;10.50;99.90;;;;;;5002096;28;20212;-73
2023/10/26 00:27:03;;;;;;;9.13;6.37;;;10.40;99.90;;;;;;5004506;28;20173;-72
2023/10/26 00:29:29;;;;;;;10.27;6.57;;;10.40;99.90;;;;;;5005207;28;20259;-71
2023/10/26 00:31:55;;;;;;;10.07;5.93;;;10.40;99.90;;;;;;5007507;28;20205;-72
2023/10/26 00:34:21;;;;;;;9.10;6.00;;;10.40;99.90;;;;;;5001978;28;20209;-72
2023/10/26 00:36:47;;;;;;;9.27;6.40;;;10.40;99.90;;;;;;5006905;28;20214;-72
2023/10/26 00:39:12;;;;;;;10.97;6.80;;;10.40;99.90;;;;;;4997971;28;20304;-71
2023/10/26 00:41:38;;;;;;;8.43;6.40;;;10.40;99.90;;;;;;5005671;28;20189;-73
2023/10/26 00:44:04;;;;;;;9.73;6.63;;;10.30;99.90;;;;;;5020562;28;20300;-73
2023/10/26 00:46:30;;;;;;;13.07;7.07;;;10.30;99.90;;;;;;5007993;28;20213;-73
2023/10/26 00:48:56;;;;;;;10.17;6.57;;;10.40;99.90;;;;;;5004168;28;20752;-72
2023/10/26 00:51:23;;;;;;;12.77;7.80;;;10.30;99.90;;;;;;5005455;28;20208;-73
2023/10/26 00:53:49;;;;;;;10.30;6.57;;;10.30;99.90;;;;;;4997716;28;20228;-73
2023/10/26 00:56:19;;;;;;;13.13;7.70;;;10.30;99.90;;;;;;5005865;28;20756;-73
2023/10/26 00:58:45;;;;;;;9.53;7.07;;;10.30;99.90;;;;;;5002354;28;20217;-71
2023/10/26 01:01:11;;;;;;;12.80;7.70;;;10.30;99.90;;;;;;5004333;28;20300;-72
2023/10/26 01:03:38;;;;;;;12.43;7.17;;;10.20;99.90;;;;;;5005816;28;20220;-72
2023/10/26 01:06:04;;;;;;;13.70;7.07;;;10.30;99.90;;;;;;5001099;28;20182;-73
2023/10/26 01:08:30;;;;;;;10.83;6.97;;;10.20;99.90;;;;;;5005789;28;21053;-73
2023/10/26 01:10:57;;;;;;;10.80;7.13;;;10.20;99.90;;;;;;5007893;28;20217;-72
2023/10/26 01:13:23;;;;;;;13.80;8.00;;;10.10;99.90;;;;;;5005353;28;20219;-73
2023/10/26 01:15:49;;;;;;;12.20;7.40;;;10.20;99.90;;;;;;5004335;28;20280;-72
2023/10/26 01:18:15;;;;;;;11.10;7.80;;;10.10;99.90;;;;;;5011684;28;20213;-72
2023/10/26 01:20:42;;;;;;;14.50;7.80;;;10.10;99.90;;;;;;5002907;28;20256;-72
2023/10/26 01:23:08;;;;;;;11.70;7.67;;;10.10;99.90;;;;;;5004699;28;20851;-72
2023/10/26 01:25:33;;;;;;;11.43;7.17;;;10.20;99.90;;;;;;5005000;28;20221;-72
2023/10/26 01:27:59;;;;;;;13.17;7.93;;;10.20;99.90;;;;;;5008022;28;20680;-72
2023/10/26 01:30:26;;;;;;;11.33;7.70;;;10.20;99.90;;;;;;5008372;28;20632;-72
2023/10/26 01:32:51;;;;;;;13.37;8.17;;;10.20;99.90;;;;;;5008462;28;20675;-73
2023/10/26 01:35:17;;;;;;;12.47;7.77;;;10.20;99.90;;;;;;5008665;28;20284;-72
2023/10/26 01:37:43;;;;;;;13.13;7.67;;;10.30;99.90;;;;;;5004211;28;20339;-73
2023/10/26 01:40:09;;;;;;;11.40;7.63;;;10.30;99.90;;;;;;5010360;28;20239;-72
2023/10/26 01:42:34;;;;;;;10.47;6.87;;;10.30;99.90;;;;;;5005899;28;20680;-70
2023/10/26 01:45:01;;;;;;;13.30;8.87;;;10.20;99.90;;;;;;5001584;28;20216;-72
2023/10/26 01:47:27;;;;;;;12.50;8.00;;;10.20;99.90;;;;;;5007012;28;20178;-74
2023/10/26 01:49:53;;;;;;;11.63;7.07;;;10.20;99.90;;;;;;5003054;28;20376;-72
2023/10/26 01:52:18;;;;;;;14.17;8.27;;;10.20;99.90;;;;;;5006284;28;20209;-73
2023/10/26 01:54:44;;;;;;;12.07;7.87;;;10.20;99.90;;;;;;5002567;28;20240;-73
2023/10/26 01:57:09;;;;;;;12.97;7.90;;;10.20;99.90;;;;;;5010921;28;20291;-72
2023/10/26 01:59:35;;;;;;;14.83;8.27;;;10.20;99.90;;;;;;5017465;28;20192;-70
2023/10/26 02:02:01;;;;;;;15.13;8.83;;;10.20;99.90;;;;;;5011195;28;20217;-72
2023/10/26 02:04:26;;;;;;;13.73;8.30;;;10.20;99.90;;;;;;5011658;28;20717;-72
2023/10/26 02:06:52;;;;;;;14.23;8.90;;;10.20;99.90;;;;;;5010737;28;20722;-73
2023/10/26 02:09:17;;;;;;;14.57;8.00;;;10.10;99.90;;;;;;5012093;28;20258;-72
2023/10/26 02:11:43;;;;;;;14.43;8.73;;;10.20;99.90;;;;;;5008246;28;20688;-73
2023/10/26 02:14:09;;;;;;;11.07;7.90;;;10.20;99.90;;;;;;5019713;28;20225;-72
2023/10/26 02:16:34;;;;;;;11.70;8.13;;;10.20;99.90;;;;;;5007345;28;20665;-74
2023/10/26 02:19:00;;;;;;;12.23;7.60;;;10.20;99.90;;;;;;5006919;28;20209;-72
2023/10/26 02:21:25;;;;;;;12.57;8.33;;;10.20;99.90;;;;;;5008061;28;20255;-73
2023/10/26 02:23:51;;;;;;;11.90;7.63;;;10.10;99.90;;;;;;5005955;28;20206;-73
2023/10/26 02:26:17;;;;;;;12.90;8.20;;;10.20;99.90;;;;;;5008701;28;20186;-74
2023/10/26 02:28:43;;;;;;;14.50;8.50;;;10.20;99.90;;;;;;5005185;28;20216;-74
2023/10/26 02:31:08;;;;;;;11.70;7.67;;;10.20;99.90;;;;;;5004933;28;20221;-73
2023/10/26 02:33:34;;;;;;;13.83;8.30;;;10.20;99.90;;;;;;5005988;28;20730;-73
2023/10/26 02:35:59;;;;;;;13.60;8.37;;;10.20;99.90;;;;;;5018561;28;20195;-73
2023/10/26 02:38:25;;;;;;;11.57;8.13;;;10.20;99.90;;;;;;5008280;28;20559;-73
2023/10/26 02:40:51;;;;;;;13.17;8.50;;;10.20;99.90;;;;;;5002395;28;20209;-73
2023/10/26 02:43:17;;;;;;;15.33;9.50;;;10.20;99.90;;;;;;5001785;28;20216;-73
2023/10/26 02:45:43;;;;;;;13.27;8.63;;;10.20;99.90;;;;;;5004825;28;20684;-74
2023/10/26 02:48:08;;;;;;;13.97;7.87;;;10.20;99.90;;;;;;5007538;28;20220;-72
2023/10/26 02:50:35;;;;;;;14.00;8.37;;;10.20;99.90;;;;;;5010618;28;20209;-73
2023/10/26 02:53:01;;;;;;;12.40;7.77;;;10.20;99.90;;;;;;5009835;28;20213;-72
2023/10/26 02:55:26;;;;;;;13.43;8.47;;;10.20;99.90;;;;;;5010500;28;20688;-73
2023/10/26 02:57:52;;;;;;;10.87;8.20;;;10.20;99.90;;;;;;5008554;28;20878;-74
2023/10/26 03:00:18;;;;;;;14.57;8.83;;;10.20;99.90;;;;;;5007120;28;20213;-74
2023/10/26 03:02:43;;;;;;;15.03;8.40;;;10.20;99.90;;;;;;5007040;28;20182;-74
2023/10/26 03:05:09;;;;;;;15.43;9.07;;;10.30;99.90;;;;;;5016599;28;20216;-74
2023/10/26 03:07:35;;;;;;;15.07;9.67;;;10.30;99.90;;;;;;5004555;28;20295;-74
2023/10/26 03:10:01;;;;;;;16.47;9.17;;;10.30;99.90;;;;;;5007739;28;20232;-75
2023/10/26 03:12:26;;;;;;;13.17;8.57;;;10.20;99.90;;;;;;5003902;28;20266;-74
2023/10/26 03:14:52;;;;;;;13.03;8.63;;;10.20;99.90;;;;;;5005895;28;20619;-74
2023/10/26 03:17:18;;;;;;;12.90;8.27;;;10.20;99.90;;;;;;5006657;28;20177;-74
2023/10/26 03:19:43;;;;;;;12.67;8.30;;;10.30;99.90;;;;;;5002964;28;20213;-74
2023/10/26 03:22:10;;;;;;;13.93;8.67;;;10.30;99.90;;;;;;5004490;28;20213;-75
2023/10/26 03:24:36;;;;;;;14.57;9.03;;;10.30;99.90;;;;;;5008043;28;20798;-75
2023/10/26 03:27:02;;;;;;;13.73;8.27;;;10.20;99.90;;;;;;5018399;28;20271;-74
2023/10/26 03:29:27;;;;;;;14.67;8.10;;;10.30;99.90;;;;;;5011354;28;20204;-74
2023/10/26 03:31:53;;;;;;;16.17;8.67;;;10.30;99.90;;;;;;5009578;28;20738;-74
2023/10/26 03:34:19;;;;;;;14.70;9.17;;;10.30;99.90;;;;;;5001990;28;20209;-74
2023/10/26 03:36:45;;;;;;;15.23;9.10;;;10.30;99.90;;;;;;5007609;28;20216;-75
2023/10/26 03:39:11;;;;;;;13.83;8.90;;;10.40;99.90;;;;;;5011718;28;20221;-74
2023/10/26 03:41:36;;;;;;;13.57;8.73;;;10.40;99.90;;;;;;5006431;28;20185;-74
2023/10/26 03:44:02;;;;;;;13.13;8.67;;;10.30;99.90;;;;;;5004851;28;20212;-74
2023/10/26 03:46:27;;;;;;;15.30;9.17;;;10.30;99.90;;;;;;5005020;28;20213;-74
2023/10/26 03:48:53;;;;;;;13.40;8.67;;;10.30;99.90;;;;;;5008464;28;20218;-74
2023/10/26 03:51:20;;;;;;;11.53;7.60;;;10.30;99.90;;;;;;5020726;28;20212;-75
2023/10/26 03:53:46;;;;;;;11.77;7.17;;;10.30;99.90;;;;;;5004909;28;20219;-74
2023/10/26 03:56:12;;;;;;;12.20;8.63;;;10.30;99.90;;;;;;4998161;28;20206;-74
2023/10/26 03:58:37;;;;;;;13.33;8.40;;;10.20;99.90;;;;;;5002668;28;20213;-74
2023/10/26 04:01:05;;;;;;;13.13;8.60;;;10.30;99.90;;;;;;5006994;28;20288;-74
2023/10/26 04:03:30;;;;;;;15.60;8.30;;;10.20;99.90;;;;;;5001179;28;20280;-74
2023/10/26 04:05:56;;;;;;;11.47;7.07;;;10.10;99.90;;;;;;5024732;28;20640;-73
2023/10/26 04:08:21;;;;;;;11.10;7.20;;;10.10;99.90;;;;;;5025921;28;20261;-74
2023/10/26 04:10:48;;;;;;;12.27;7.50;;;10.20;99.90;;;;;;5001536;28;20227;-74
2023/10/26 04:13:13;;;;;;;20.17;10.93;;;10.20;99.90;;;;;;5004810;28;20201;-72
2023/10/26 04:15:39;;;;;;;15.80;9.50;;;10.20;99.90;;;;;;5001728;28;20216;-74
2023/10/26 04:18:08;;;;;;;12.20;8.37;;;10.20;99.90;;;;;;5003800;28;20189;-75
2023/10/26 04:20:33;;;;;;;11.83;7.10;;;10.20;99.90;;;;;;5000168;28;20189;-74
2023/10/26 04:22:59;;;;;;;14.50;8.57;;;10.20;99.90;;;;;;5003591;28;20756;-73
2023/10/26 04:25:28;;;;;;;13.23;8.20;;;10.30;99.90;;;;;;5004609;28;20227;-74
2023/10/26 04:27:55;;;;;;;12.57;7.77;;;10.30;99.90;;;;;;5000957;28;20375;-75
2023/10/26 04:30:21;;;;;;;14.37;9.07;;;10.20;99.90;;;;;;5005494;28;20216;-74
2023/10/26 04:32:47;;;;;;;14.37;8.17;;;10.30;99.90;;;;;;5003543;28;20663;-74
2023/10/26 04:35:12;;;;;;;9.97;7.03;;;10.30;99.90;;;;;;5005691;28;20230;-74
2023/10/26 04:37:38;;;;;;;14.17;8.03;;;10.20;99.90;;;;;;5008094;28;20307;-74
2023/10/26 04:40:05;;;;;;;11.17;7.17;;;10.30;99.90;;;;;;5004752;28;20259;-74
2023/10/26 04:42:31;;;;;;;15.50;8.43;;;10.30;99.90;;;;;;5010015;28;20228;-74
2023/10/26 04:44:57;;;;;;;14.13;7.40;;;10.30;99.90;;;;;;5006989;28;20205;-70
2023/10/26 04:47:23;;;;;;;12.87;7.83;;;10.30;99.90;;;;;;5007104;28;20173;-74
2023/10/26 04:49:49;;;;;;;11.20;6.97;;;10.30;99.90;;;;;;5006280;28;20611;-74
2023/10/26 04:52:18;;;;;;;15.17;8.87;;;10.30;99.90;;;;;;5006707;28;20209;-74
2023/10/26 04:54:43;;;;;;;13.13;7.93;;;10.30;99.90;;;;;;5005598;28;20240;-74
2023/10/26 04:57:09;;;;;;;11.67;8.00;;;10.30;99.90;;;;;;5006734;28;20210;-74
2023/10/26 04:59:35;;;;;;;11.20;7.07;;;10.30;99.90;;;;;;5003856;28;20185;-74
2023/10/26 05:02:00;;;;;;;12.67;7.30;;;10.30;99.90;;;;;;5013870;28;20220;-74
2023/10/26 05:04:26;;;;;;;15.47;8.97;;;10.40;99.90;;;;;;5008713;28;20640;-73
2023/10/26 05:06:52;;;;;;;12.70;8.97;;;10.40;99.90;;;;;;5008731;28;20220;-73
2023/10/26 05:09:17;;;;;;;12.47;7.43;;;10.30;99.90;;;;;;5006877;28;20244;-75
2023/10/26 05:11:43;;;;;;;12.07;7.70;;;10.30;99.90;;;;;;5006180;28;20178;-74
2023/10/26 05:14:09;;;;;;;12.17;7.10;;;10.30;99.90;;;;;;5006302;28;20750;-74
2023/10/26 05:16:35;;;;;;;10.63;7.60;;;10.30;99.90;;;;;;5011772;28;20205;-74
2023/10/26 05:19:00;;;;;;;12.37;8.23;;;10.20;99.90;;;;;;5008650;28;20214;-74
2023/10/26 05:21:26;;;;;;;12.43;8.10;;;10.20;99.90;;;;;;5010718;28;20205;-75
2023/10/26 05:23:51;;;;;;;12.27;7.77;;;10.20;99.90;;;;;;5007704;28;20284;-74
2023/10/26 05:26:17;;;;;;;11.70;7.30;;;10.20;99.90;;;;;;5010365;28;20169;-75
2023/10/26 05:28:43;;;;;;;30.03;16.20;;;10.20;99.90;;;;;;5004139;28;20209;-71
2023/10/26 05:31:09;;;;;;;12.03;8.20;;;10.20;99.90;;;;;;5007505;28;20624;-74
2023/10/26 05:33:34;;;;;;;11.10;6.97;;;10.20;99.90;;;;;;5010848;28;20221;-74
2023/10/26 05:36:00;;;;;;;13.77;7.60;;;10.20;99.90;;;;;;5002407;28;20182;-74
2023/10/26 05:38:25;;;;;;;10.70;6.67;;;10.30;99.90;;;;;;5007827;28;20668;-74
2023/10/26 05:40:54;;;;;;;13.30;7.17;;;10.20;99.90;;;;;;5001832;28;20206;-74
2023/10/26 05:43:19;;;;;;;10.67;6.70;;;10.20;99.90;;;;;;5008597;28;20297;-73
2023/10/26 05:45:45;;;;;;;11.93;7.07;;;10.20;99.90;;;;;;5005347;28;20661;-74
2023/10/26 05:48:11;;;;;;;10.80;6.97;;;10.20;99.90;;;;;;5008455;28;20209;-73
2023/10/26 05:50:43;;;;;;;11.57;6.93;;;10.30;99.90;;;;;;5023816;28;20209;-74
2023/10/26 05:53:10;;;;;;;10.77;6.93;;;10.30;99.90;;;;;;5008297;28;20284;-73
2023/10/26 05:55:36;;;;;;;9.27;6.73;;;10.20;99.90;;;;;;5003695;28;20231;-74
2023/10/26 05:58:03;;;;;;;10.33;6.90;;;10.20;99.90;;;;;;5009422;28;20595;-74
2023/10/26 06:00:29;;;;;;;11.37;6.83;;;10.30;99.90;;;;;;5006285;28;20607;-75
2023/10/26 06:02:55;;;;;;;12.40;6.83;;;10.20;99.90;;;;;;5007812;28;20209;-72
2023/10/26 06:05:20;;;;;;;12.80;6.90;;;10.20;99.90;;;;;;5010105;28;20280;-75
2023/10/26 06:07:46;;;;;;;13.23;7.47;;;10.30;99.90;;;;;;5007999;28;20197;-75
2023/10/26 06:10:12;;;;;;;10.97;6.60;;;10.30;99.90;;;;;;5005795;28;20295;-75
2023/10/26 06:12:37;;;;;;;10.40;7.10;;;10.30;99.90;;;;;;5007721;28;20213;-75
2023/10/26 06:15:04;;;;;;;10.27;6.33;;;10.30;99.90;;;;;;5004354;28;20638;-75
2023/10/26 06:17:30;;;;;;;10.33;5.77;;;10.30;99.90;;;;;;5000627;28;20189;-74
2023/10/26 06:19:55;;;;;;;9.87;6.73;;;10.30;99.90;;;;;;5003586;28;20210;-75
2023/10/26 06:22:21;;;;;;;10.63;5.83;;;10.40;99.90;;;;;;5009004;28;20296;-73
2023/10/26 06:24:46;;;;;;;9.10;5.50;;;10.40;99.90;;;;;;5002026;28;20224;-74
2023/10/26 06:27:12;;;;;;;10.87;6.60;;;10.30;99.90;;;;;;5022501;28;20240;-75
2023/10/26 06:29:38;;;;;;;10.00;6.20;;;10.30;99.90;;;;;;5002559;28;20707;-73
2023/10/26 06:32:04;;;;;;;11.60;6.33;;;10.30;99.90;;;;;;5003767;28;20204;-73
2023/10/26 06:34:29;;;;;;;9.33;5.83;;;10.40;99.90;;;;;;4997094;28;20233;-73
2023/10/26 06:36:55;;;;;;;9.80;6.17;;;10.40;99.90;;;;;;5005616;28;20228;-73
2023/10/26 06:39:21;;;;;;;9.37;5.30;;;10.40;99.90;;;;;;5007011;28;20215;-74
2023/10/26 06:41:47;;;;;;;9.47;5.63;;;10.50;99.90;;;;;;5014628;28;20193;-73
2023/10/26 06:44:13;;;;;;;9.10;5.70;;;10.40;99.90;;;;;;4999649;28;20232;-73
2023/10/26 06:46:38;;;;;;;10.50;5.63;;;10.40;99.90;;;;;;5004225;28;20208;-73
2023/10/26 06:49:04;;;;;;;10.47;6.40;;;10.40;99.90;;;;;;5009673;28;20216;-73
2023/10/26 06:51:30;;;;;;;10.00;6.47;;;10.40;99.90;;;;;;5006274;28;20259;-72
2023/10/26 06:53:55;;;;;;;10.73;6.47;;;10.40;99.90;;;;;;5006888;28;20291;-74
2023/10/26 06:56:21;;;;;;;11.37;6.40;;;10.40;99.90;;;;;;5008601;28;20185;-73
2023/10/26 06:58:47;;;;;;;7.83;5.70;;;10.30;99.90;;;;;;5005646;28;20233;-71
2023/10/26 07:01:13;;;;;;;9.53;5.77;;;10.30;99.90;;;;;;5006795;28;20201;-71
2023/10/26 07:03:39;;;;;;;9.57;6.00;;;10.40;99.90;;;;;;5001422;28;20295;-73
2023/10/26 07:06:05;;;;;;;8.83;5.80;;;10.40;99.90;;;;;;5007972;28;20185;-74
2023/10/26 07:08:33;;;;;;;11.03;6.60;;;10.40;99.90;;;;;;5004133;28;20561;-74
2023/10/26 07:10:59;;;;;;;12.87;8.53;;;10.40;99.90;;;;;;5003455;28;20716;-73
2023/10/26 07:13:25;;;;;;;10.03;6.53;;;10.40;99.90;;;;;;5006213;28;20196;-74
2023/10/26 07:15:51;;;;;;;12.77;7.73;;;10.40;99.90;;;;;;4998810;28;20264;-74
2023/10/26 07:18:18;;;;;;;8.90;6.17;;;10.40;99.90;;;;;;4998949;28;20685;-74
2023/10/26 07:20:44;;;;;;;13.07;6.37;;;10.50;99.90;;;;;;5001460;28;20170;-74
2023/10/26 07:23:10;;;;;;;9.80;6.33;;;10.40;99.90;;;;;;5000533;28;20217;-74
2023/10/26 07:25:38;;;;;;;10.27;6.20;;;10.40;99.90;;;;;;5003311;28;20217;-75
2023/10/26 07:28:04;;;;;;;10.10;6.53;;;10.50;99.90;;;;;;5004118;28;20228;-75
2023/10/26 07:30:29;;;;;;;10.60;6.93;;;10.50;99.90;;;;;;5006093;28;20224;-75
2023/10/26 07:32:55;;;;;;;10.23;6.53;;;10.50;99.90;;;;;;5002933;28;20268;-75
2023/10/26 07:35:20;;;;;;;12.20;6.50;;;10.50;99.90;;;;;;5006055;28;20572;-74
2023/10/26 07:37:47;;;;;;;8.83;6.43;;;10.50;99.90;;;;;;5001354;28;20208;-71
2023/10/26 07:40:13;;;;;;;9.00;5.90;;;10.50;99.90;;;;;;5000952;28;20287;-74
2023/10/26 07:42:38;;;;;;;9.27;5.70;;;10.50;99.90;;;;;;5003186;28;20308;-74
2023/10/26 07:45:06;;;;;;;12.50;7.30;;;10.50;99.90;;;;;;5005042;28;20204;-74
2023/10/26 07:47:32;;;;;;;10.97;7.13;;;10.50;99.90;;;;;;5023061;28;20173;-73
2023/10/26 07:49:57;;;;;;;10.37;7.17;;;10.50;99.90;;;;;;5020986;28;20260;-73
2023/10/26 07:52:24;;;;;;;10.33;6.37;;;10.50;99.90;;;;;;5019456;28;20205;-74
2023/10/26 07:54:50;;;;;;;9.83;5.87;;;10.50;99.90;;;;;;5000413;28;20221;-74
2023/10/26 07:57:16;;;;;;;12.93;7.80;;;10.60;99.90;;;;;;5007910;28;20212;-75
2023/10/26 07:59:42;;;;;;;10.40;6.13;;;10.60;99.90;;;;;;5002134;28;20644;-74
2023/10/26 08:02:10;;;;;;;12.00;7.57;;;10.50;99.90;;;;;;5008854;28;20213;-71
2023/10/26 08:04:36;;;;;;;12.07;7.70;;;10.60;99.90;;;;;;5005735;28;20213;-74
2023/10/26 08:07:01;;;;;;;9.90;6.40;;;10.60;99.90;;;;;;5003067;28;20220;-73
2023/10/26 08:09:34;;;;;;;12.57;7.80;;;10.70;99.90;;;;;;4996487;28;20224;-75
2023/10/26 08:12:00;;;;;;;10.90;6.60;;;10.70;99.90;;;;;;4994952;28;20178;-73
2023/10/26 08:14:29;;;;;;;12.90;8.50;;;10.60;99.90;;;;;;5005459;28;20276;-73
2023/10/26 08:16:56;;;;;;;12.37;7.47;;;10.60;99.90;;;;;;5000278;28;20256;-74
2023/10/26 08:19:22;;;;;;;10.43;7.00;;;10.60;99.90;;;;;;4999674;28;20218;-73
2023/10/26 08:21:48;;;;;;;10.47;6.63;;;10.70;99.90;;;;;;4999920;28;20209;-75
2023/10/26 08:24:14;;;;;;;11.07;6.77;;;10.70;99.90;;;;;;5004336;28;20216;-73
2023/10/26 08:26:40;;;;;;;12.07;5.97;;;10.70;99.90;;;;;;5002815;28;20176;-72
2023/10/26 08:29:05;;;;;;;11.83;7.70;;;10.80;99.90;;;;;;5002840;28;20212;-71
2023/10/26 08:31:34;;;;;;;11.73;6.83;;;10.70;99.90;;;;;;5000981;28;20339;-72
2023/10/26 08:34:00;;;;;;;11.90;8.00;;;10.80;99.90;;;;;;5002587;28;20217;-72
2023/10/26 08:36:26;;;;;;;13.53;7.93;;;10.80;99.90;;;;;;4998638;28;20215;-72
2023/10/26 08:38:51;;;;;;;11.53;6.87;;;10.80;99.90;;;;;;5007911;28;20187;-72
2023/10/26 08:41:17;;;;;;;12.47;7.37;;;10.80;99.90;;;;;;5006428;28;20185;-71
2023/10/26 08:43:43;;;;;;;9.83;6.63;;;10.90;99.90;;;;;;5000887;28;20237;-72
2023/10/26 08:46:10;;;;;;;9.73;6.27;;;10.80;99.90;;;;;;4997685;28;20205;-72
2023/10/26 08:48:39;;;;;;;12.00;7.47;;;10.80;99.90;;;;;;4997543;28;20232;-72
2023/10/26 08:51:05;;;;;;;11.30;7.67;;;10.80;99.90;;;;;;5015116;28;20205;-72
2023/10/26 08:53:34;;;;;;;11.43;6.70;;;10.80;99.90;;;;;;5003460;28;20213;-72
2023/10/26 08:56:00;;;;;;;15.93;8.47;;;10.80;99.90;;;;;;5005390;28;20563;-72
2023/10/26 08:58:26;;;;;;;12.97;7.40;;;10.90;99.90;;;;;;4999459;28;20209;-72
2023/10/26 09:00:52;;;;;;;11.33;7.00;;;10.90;99.90;;;;;;4998374;28;20243;-72
2023/10/26 09:03:18;;;;;;;11.03;7.30;;;11.00;99.90;;;;;;4996154;28;20228;-71
2023/10/26 09:05:55;;;;;;;12.53;7.40;;;11.00;99.90;;;;;;5007997;28;20185;-72
2023/10/26 09:08:23;;;;;;;11.40;7.37;;;11.00;99.90;;;;;;5010040;28;20455;-73
2023/10/26 09:10:51;;;;;;;11.23;6.77;;;11.00;99.90;;;;;;4998068;28;20221;-72
2023/10/26 09:13:24;;;;;;;11.70;7.77;;;11.00;99.90;;;;;;5000539;28;20201;-72
2023/10/26 09:15:53;;;;;;;9.73;6.37;;;11.00;99.90;;;;;;5002303;28;20210;-71
2023/10/26 09:18:20;;;;;;;10.20;5.90;;;11.10;99.90;;;;;;5005873;28;20204;-72
2023/10/26 09:21:03;;;;;;;11.77;7.23;;;11.10;99.90;;;;;;4995583;28;20178;-72
2023/10/26 09:23:30;;;;;;;9.80;6.40;;;11.00;99.90;;;;;;4995699;28;20213;-70
2023/10/26 09:26:04;;;;;;;10.27;6.53;;;11.00;99.90;;;;;;4993986;28;20275;-72
2023/10/26 09:28:51;;;;;;;11.17;6.97;;;11.10;99.90;;;;;;5003070;28;20338;-72
2023/10/26 09:31:17;;;;;;;11.93;7.53;;;11.10;99.90;;;;;;5010002;28;20716;-72
2023/10/26 09:33:47;;;;;;;10.57;6.73;;;11.10;99.90;;;;;;5008950;28;20858;-73
2023/10/26 09:36:14;;;;;;;10.53;6.80;;;11.10;99.90;;;;;;5004234;28;20205;-71
2023/10/26 09:38:41;;;;;;;10.30;7.17;;;11.10;99.90;;;;;;5003417;28;20184;-73
2023/10/26 09:41:11;;;;;;;10.30;6.63;;;11.20;99.90;;;;;;4999623;28;20255;-72
2023/10/26 09:43:37;;;;;;;11.93;6.50;;;11.10;99.90;;;;;;5004591;28;20209;-71
2023/10/26 09:46:03;;;;;;;9.70;6.27;;;11.10;99.90;;;;;;5000677;28;20288;-72
2023/10/26 09:48:30;;;;;;;11.17;5.93;;;11.10;99.90;;;;;;5011223;28;20292;-71
2023/10/26 09:51:00;;;;;;;10.03;5.67;;;11.00;99.90;;;;;;5007977;28;20197;-73
2023/10/26 09:53:37;;;;;;;9.30;6.33;;;11.00;99.90;;;;;;5005256;28;20165;-73
2023/10/26 09:56:04;;;;;;;9.57;5.90;;;11.10;99.90;;;;;;5001628;28;20205;-73
2023/10/26 09:58:40;;;;;;;11.23;6.60;;;11.10;99.90;;;;;;5011537;28;20210;-72
2023/10/26 10:01:29;;;;;;;8.83;5.73;;;11.10;99.90;;;;;;5001789;28;20276;-72
2023/10/26 10:03:55;;;;;;;9.00;5.77;;;11.00;99.90;;;;;;5001200;28;20292;-72
2023/10/26 10:06:42;;;;;;;8.93;5.53;;;11.10;99.90;;;;;;5002328;28;20292;-72
2023/10/26 10:09:10;;;;;;;10.57;6.50;;;11.00;99.90;;;;;;5002886;28;20440;-72
2023/10/26 10:11:36;;;;;;;7.67;4.93;;;11.10;99.90;;;;;;5002311;28;20253;-73
2023/10/26 10:14:01;;;;;;;9.53;6.10;;;11.10;99.90;;;;;;4998151;28;20353;-73
2023/10/26 10:16:36;;;;;;;9.97;5.93;;;11.10;99.90;;;;;;5005820;28;20331;-73
2023/10/26 10:19:21;;;;;;;8.47;5.40;;;11.10;99.90;;;;;;5022157;28;20216;-73
2023/10/26 10:21:51;;;;;;;8.23;5.67;;;11.10;99.90;;;;;;5004644;28;20272;-71
2023/10/26 10:24:38;;;;;;;6.77;4.97;;;11.10;99.90;;;;;;5010376;28;20213;-73
2023/10/26 10:27:12;;;;;;;9.30;6.20;;;11.20;99.90;;;;;;5006386;28;20184;-73
2023/10/26 10:29:42;;;;;;;8.23;5.17;;;11.20;99.90;;;;;;5001978;28;20197;-73
2023/10/26 10:32:10;;;;;;;7.67;5.70;;;11.30;99.90;;;;;;5017883;28;20772;-72
2023/10/26 10:34:43;;;;;;;9.57;6.50;;;11.30;99.90;;;;;;5008374;28;20209;-73
2023/10/26 10:37:14;;;;;;;9.17;5.73;;;11.30;99.90;;;;;;5009224;28;20707;-73
2023/10/26 10:40:12;;;;;;;8.13;5.70;;;11.30;99.90;;;;;;5000246;28;20214;-74
2023/10/26 10:42:49;;;;;;;11.10;6.53;;;11.40;99.90;;;;;;4999116;28;20213;-73
2023/10/26 10:45:16;;;;;;;9.80;6.90;;;11.40;99.90;;;;;;5002851;28;21281;-72
2023/10/26 10:47:43;;;;;;;10.30;5.97;;;11.40;99.90;;;;;;4999097;28;20259;-73
2023/10/26 10:50:20;;;;;;;9.93;6.27;;;11.30;99.90;;;;;;4997302;28;20221;-73
2023/10/26 10:52:47;;;;;;;9.93;6.83;;;11.30;99.90;;;;;;5001790;28;20209;-73
2023/10/26 10:55:19;;;;;;;12.53;7.10;;;11.30;99.90;;;;;;5000800;28;20228;-73
2023/10/26 10:57:59;;;;;;;11.03;7.43;;;11.30;99.90;;;;;;5008246;28;20588;-73
2023/10/26 11:00:27;;;;;;;12.13;7.70;;;11.30;99.90;;;;;;5004418;28;20197;-71
2023/10/26 11:02:56;;;;;;;13.47;8.70;;;11.30;99.90;;;;;;5007293;28;20169;-73
2023/10/26 11:05:34;;;;;;;10.07;6.90;;;11.40;99.90;;;;;;5006738;28;20197;-73
2023/10/26 11:08:00;;;;;;;11.20;6.70;;;11.40;99.90;;;;;;5005654;28;20221;-72
2023/10/26 11:10:26;;;;;;;9.20;6.57;;;11.50;99.90;;;;;;5019018;28;20245;-73
2023/10/26 11:12:52;;;;;;;10.83;7.57;;;11.40;99.90;;;;;;5009649;28;20208;-73
2023/10/26 11:15:18;;;;;;;14.83;7.23;;;11.40;99.90;;;;;;5002968;28;20598;-73
2023/10/26 11:17:43;;;;;;;12.93;7.20;;;11.40;99.90;;;;;;5003120;28;20174;-73
2023/10/26 11:20:32;;;;;;;13.67;7.13;;;11.40;99.90;;;;;;4997570;28;20292;-73
2023/10/26 11:22:57;;;;;;;10.83;7.27;;;11.40;99.90;;;;;;5001152;28;20261;-70
2023/10/26 11:25:26;;;;;;;11.70;7.80;;;11.40;99.90;;;;;;5004412;28;20213;-73
2023/10/26 11:27:52;;;;;;;12.43;7.33;;;11.40;99.90;;;;;;5005783;28;20682;-72
2023/10/26 11:30:18;;;;;;;13.00;8.43;;;11.30;99.90;;;;;;5007344;28;20241;-72
2023/10/26 11:32:44;;;;;;;12.77;7.77;;;11.40;99.90;;;;;;5008184;28;20280;-73
2023/10/26 11:35:14;;;;;;;14.73;7.57;;;11.40;99.90;;;;;;5000804;28;20217;-72
2023/10/26 11:37:47;;;;;;;15.70;8.60;;;11.40;99.90;;;;;;5010271;28;20780;-73
2023/10/26 11:40:15;;;;;;;10.67;7.20;;;11.50;99.90;;;;;;5002637;28;20235;-73
2023/10/26 11:42:55;;;;;;;15.27;7.17;;;11.40;99.90;;;;;;4997872;28;20206;-72
2023/10/26 11:45:23;;;;;;;11.57;7.50;;;11.40;99.90;;;;;;5001095;28;20221;-73
2023/10/26 11:47:55;;;;;;;11.03;7.20;;;11.40;99.90;;;;;;5003110;28;20178;-72
2023/10/26 11:50:32;;;;;;;10.17;7.03;;;11.40;99.90;;;;;;5022870;28;20897;-72
2023/10/26 11:53:03;;;;;;;9.23;6.40;;;11.50;99.90;;;;;;5003921;28;20232;-73
2023/10/26 11:55:31;;;;;;;12.07;7.93;;;11.50;99.90;;;;;;4996286;28;20635;-73
2023/10/26 11:57:58;;;;;;;12.73;6.87;;;11.50;99.90;;;;;;5003426;28;20279;-70
2023/10/26 12:00:26;;;;;;;12.07;7.13;;;11.40;99.90;;;;;;4999622;28;20228;-73
2023/10/26 12:02:56;;;;;;;10.73;7.10;;;11.50;99.90;;;;;;5001392;28;20186;-72
2023/10/26 12:05:23;;;;;;;10.67;6.70;;;11.40;99.90;;;;;;5002287;28;20206;-73
2023/10/26 12:07:49;;;;;;;11.83;6.90;;;11.50;99.90;;;;;;5000648;28;20707;-73
2023/10/26 12:10:16;;;;;;;10.43;6.97;;;11.50;99.90;;;;;;5002901;28;20225;-72
2023/10/26 12:12:42;;;;;;;10.30;6.30;;;11.60;99.90;;;;;;5001705;28;20211;-72
2023/10/26 12:15:09;;;;;;;10.43;6.07;;;11.60;99.90;;;;;;5003237;28;20214;-73
2023/10/26 12:17:35;;;;;;;10.47;7.00;;;11.60;99.90;;;;;;5009062;28;20674;-72
2023/10/26 12:20:02;;;;;;;13.13;7.20;;;11.60;99.90;;;;;;5025219;28;20212;-72
2023/10/26 12:22:28;;;;;;;10.00;6.87;;;11.60;99.90;;;;;;5006882;28;20209;-72
2023/10/26 12:24:54;;;;;;;15.20;7.13;;;11.60;99.90;;;;;;4998730;28;20212;-72
2023/10/26 12:27:20;;;;;;;11.57;6.53;;;11.70;99.90;;;;;;5021884;28;20243;-73
2023/10/26 12:29:46;;;;;;;10.75;6.93;;;11.70;99.90;;;;;;5002979;28;20251;-73
2023/10/26 12:32:13;;;;;;;9.93;6.63;;;11.60;99.90;;;;;;4995960;28;20210;-72
2023/10/26 12:34:39;;;;;;;10.73;6.00;;;11.70;99.90;;;;;;5000648;28;20961;-73
2023/10/26 12:37:05;;;;;;;9.90;5.73;;;11.70;99.90;;;;;;5001035;28;20230;-73